Time;durP1;ratioP1;P1;durP2;ratioP2;P2;SDS_P1;SDS_P2;PMS_P1;PMS_P2;Temp;Humidity;BMP_temperature;BMP_pressure;BME280_temperature;BME280_humidity;BME280_pressure;Samples;Min_cycle;Max_cycle;Signal;HPM_P1;HPM_P2
2022/03/10 00:01:26;;;;;;;;;29.00;27.33;;;;;8.04;56.24;99930.16;5058342;28;45464;-65
2022/03/10 00:03:51;;;;;;;;;22.33;20.33;;;;;8.04;56.14;99932.78;5067947;28;45521;-65
2022/03/10 00:06:16;;;;;;;;;27.33;25.67;;;;;8.03;56.19;99927.59;5052747;28;46116;-65
2022/03/10 00:08:42;;;;;;;;;31.33;26.00;;;;;8.01;56.46;99930.25;5060833;28;45462;-65
2022/03/10 00:11:08;;;;;;;;;29.33;28.33;;;;;7.99;56.27;99934.66;5060830;28;45936;-65
2022/03/10 00:13:33;;;;;;;;;32.00;25.00;;;;;7.96;56.34;99936.44;5062320;28;45377;-65
2022/03/10 00:15:59;;;;;;;;;27.00;25.67;;;;;7.92;56.79;99945.25;5055936;28;46636;-67
2022/03/10 00:18:25;;;;;;;;;32.00;28.00;;;;;7.88;56.87;99941.81;5060875;28;45730;-65
2022/03/10 00:20:51;;;;;;;;;33.33;27.67;;;;;7.82;56.97;99938.44;5054754;28;45503;-65
2022/03/10 00:23:17;;;;;;;;;19.67;19.00;;;;;7.79;57.10;99944.59;5060063;28;45601;-65
2022/03/10 00:25:42;;;;;;;;;36.00;30.67;;;;;7.79;56.81;99938.47;5038207;28;48027;-65
2022/03/10 00:28:08;;;;;;;;;27.00;26.00;;;;;7.80;57.23;99946.34;5060499;28;45479;-65
2022/03/10 00:30:33;;;;;;;;;28.33;27.00;;;;;7.81;57.02;99937.56;5040566;28;45739;-65
2022/03/10 00:32:59;;;;;;;;;27.67;25.67;;;;;7.83;57.13;99937.53;5040539;28;45401;-65
2022/03/10 00:35:25;;;;;;;;;36.00;30.67;;;;;7.84;57.03;99940.16;5050908;28;45407;-64
2022/03/10 00:37:52;;;;;;;;;30.33;28.67;;;;;7.86;57.01;99941.00;5053221;28;45464;-65
2022/03/10 00:40:17;;;;;;;;;27.67;26.00;;;;;7.87;57.16;99942.72;5048228;28;45479;-65
2022/03/10 00:42:44;;;;;;;;;28.67;25.33;;;;;7.88;57.31;99941.81;5061293;28;45450;-65
2022/03/10 00:45:10;;;;;;;;;35.00;28.00;;;;;7.88;57.19;99939.19;5049211;28;45488;-65
2022/03/10 00:47:36;;;;;;;;;32.33;26.33;;;;;7.87;56.93;99934.00;5043378;28;45381;-65
2022/03/10 00:50:04;;;;;;;;;23.00;18.00;;;;;7.87;56.80;99939.25;5044078;28;45320;-65
2022/03/10 00:52:29;;;;;;;;;35.33;31.67;;;;;7.88;56.91;99941.81;5055771;28;45507;-64
2022/03/10 00:54:54;;;;;;;;;32.33;29.33;;;;;7.87;57.05;99942.72;5062740;28;45616;-65
2022/03/10 00:57:21;;;;;;;;;30.00;27.00;;;;;7.88;57.18;99946.19;5038435;28;45362;-65
2022/03/10 00:59:46;;;;;;;;;32.33;27.67;;;;;7.86;57.26;99940.13;5064846;28;45580;-65
2022/03/10 01:02:12;;;;;;;;;31.00;28.00;;;;;7.84;57.39;99934.91;5063946;28;45372;-65
2022/03/10 01:04:37;;;;;;;;;30.67;28.33;;;;;7.82;57.84;99933.19;5060262;28;45437;-65
2022/03/10 01:07:03;;;;;;;;;27.00;25.00;;;;;7.78;57.80;99945.47;5051470;28;45421;-65
2022/03/10 01:09:29;;;;;;;;;29.67;23.33;;;;;7.75;57.93;99939.41;5047171;28;45508;-65
2022/03/10 01:11:54;;;;;;;;;32.67;29.00;;;;;7.69;57.96;99937.75;5038927;28;45554;-65
2022/03/10 01:14:20;;;;;;;;;30.00;29.00;;;;;7.64;58.50;99937.81;5065787;28;46353;-65
2022/03/10 01:16:45;;;;;;;;;31.33;30.33;;;;;7.60;58.39;99935.25;5057596;28;45411;-65
2022/03/10 01:19:11;;;;;;;;;36.33;32.67;;;;;7.58;58.82;99939.66;5047280;28;45549;-65
2022/03/10 01:21:36;;;;;;;;;36.00;32.67;;;;;7.53;59.00;99938.88;5056988;28;45504;-65
2022/03/10 01:24:03;;;;;;;;;37.67;31.33;;;;;7.46;58.67;99942.47;5065861;28;47628;-65
2022/03/10 01:26:29;;;;;;;;;46.67;36.33;;;;;7.44;59.22;99949.50;5059312;28;45457;-65
2022/03/10 01:28:54;;;;;;;;;35.67;31.67;;;;;7.42;58.86;99948.66;5060435;28;45379;-65
2022/03/10 01:31:20;;;;;;;;;36.67;30.33;;;;;7.40;59.51;99956.53;5042578;28;45514;-65
2022/03/10 01:33:45;;;;;;;;;37.67;28.00;;;;;7.38;59.29;99952.19;5067144;28;46078;-65
2022/03/10 01:36:10;;;;;;;;;31.67;30.67;;;;;7.37;59.54;99958.34;5053227;28;45456;-65
2022/03/10 01:38:39;;;;;;;;;35.00;30.33;;;;;7.36;59.59;99954.88;5065042;28;45457;-65
2022/03/10 01:41:08;;;;;;;;;37.00;32.00;;;;;7.35;59.48;99956.63;5051940;28;45409;-65
2022/03/10 01:43:34;;;;;;;;;39.33;31.00;;;;;7.34;59.65;99956.63;5064043;28;45309;-65
2022/03/10 01:46:02;;;;;;;;;36.33;33.00;;;;;7.33;59.90;99960.16;5056802;28;45437;-65
2022/03/10 01:48:27;;;;;;;;;35.67;31.33;;;;;7.31;60.14;99965.41;5055773;28;45622;-65
2022/03/10 01:50:53;;;;;;;;;42.33;37.00;;;;;7.29;60.29;99961.94;5052859;28;45550;-65
2022/03/10 01:53:18;;;;;;;;;35.67;34.67;;;;;7.26;60.41;99963.72;5055297;28;46451;-65
2022/03/10 01:55:45;;;;;;;;;47.33;38.00;;;;;7.25;60.22;99968.09;5054480;28;45449;-65
2022/03/10 01:58:11;;;;;;;;;46.67;38.00;;;;;7.23;60.42;99962.00;5055541;28;45440;-65
2022/03/10 02:00:36;;;;;;;;;31.67;25.33;;;;;7.22;60.39;99965.50;5050246;28;45360;-65
2022/03/10 02:03:02;;;;;;;;;43.67;36.00;;;;;7.20;60.82;99959.44;5050944;28;45547;-65
2022/03/10 02:05:30;;;;;;;;;44.00;35.00;;;;;7.19;60.55;99956.84;5050890;28;45417;-65
2022/03/10 02:10:42;;;;;;;;;41.00;35.00;;;;;7.16;60.67;99962.13;5047244;28;45218;-65
2022/03/10 02:13:07;;;;;;;;;39.67;34.33;;;;;7.16;60.72;99963.00;5055442;28;45614;-65
2022/03/10 02:18:19;;;;;;;;;39.33;36.00;;;;;7.17;60.96;99964.72;5043717;28;45480;-65
2022/03/10 02:20:45;;;;;;;;;41.00;33.33;;;;;7.17;60.85;99964.72;5052959;28;45416;-65
2022/03/10 02:23:11;;;;;;;;;41.33;35.33;;;;;7.17;60.72;99963.88;5054391;28;45985;-65
2022/03/10 02:25:37;;;;;;;;;34.67;32.67;;;;;7.17;60.78;99962.09;5051491;28;45371;-65
2022/03/10 02:28:03;;;;;;;;;47.67;37.67;;;;;7.15;60.97;99956.00;5055138;28;45282;-65
2022/03/10 02:30:30;;;;;;;;;45.00;37.33;;;;;7.13;61.07;99947.28;5053016;28;45383;-65
2022/03/10 02:32:57;;;;;;;;;47.67;38.33;;;;;7.12;61.40;99949.94;5054936;28;46154;-65
2022/03/10 02:35:23;;;;;;;;;42.00;36.33;;;;;7.07;61.18;99947.38;5031008;28;45491;-65
2022/03/10 02:37:49;;;;;;;;;37.00;35.00;;;;;7.04;61.11;99949.19;5053153;28;45548;-65
2022/03/10 02:40:14;;;;;;;;;49.00;38.00;;;;;7.02;61.20;99943.09;5049861;28;45496;-65
2022/03/10 02:42:40;;;;;;;;;49.67;41.00;;;;;7.00;61.13;99945.72;5054672;28;46460;-64
2022/03/10 02:45:07;;;;;;;;;56.00;41.33;;;;;6.96;61.31;99949.25;5052147;28;45314;-65
2022/03/10 02:47:33;;;;;;;;;54.33;43.67;;;;;6.93;61.32;99946.66;5054825;28;45371;-65
2022/03/10 02:49:58;;;;;;;;;47.67;39.67;;;;;6.89;61.47;99952.81;5034364;28;45641;-65
2022/03/10 02:52:24;;;;;;;;;54.67;43.33;;;;;6.86;61.48;99948.50;5054492;28;46002;-65
2022/03/10 02:54:50;;;;;;;;;46.33;39.67;;;;;6.84;61.71;99952.91;5053869;28;45363;-65
2022/03/10 02:57:16;;;;;;;;;53.67;43.67;;;;;6.82;61.49;99953.81;5050330;28;45401;-65
2022/03/10 02:59:42;;;;;;;;;48.67;38.67;;;;;6.81;61.53;99950.31;5053040;28;45395;-65
2022/03/10 03:02:08;;;;;;;;;51.00;40.00;;;;;6.80;61.70;99961.69;5056575;28;46235;-65
2022/03/10 03:04:34;;;;;;;;;45.33;37.67;;;;;6.82;62.13;99964.28;5053819;28;45430;-65
2022/03/10 03:06:59;;;;;;;;;39.33;36.00;;;;;6.83;61.61;99968.66;5041809;28;45825;-65
2022/03/10 03:09:25;;;;;;;;;41.33;37.33;;;;;6.80;61.74;99961.69;5054668;28;45480;-65
2022/03/10 03:11:51;;;;;;;;;45.67;38.67;;;;;6.77;61.93;99961.72;5050097;28;45565;-65
2022/03/10 03:14:17;;;;;;;;;47.33;42.00;;;;;6.76;61.94;99954.72;5054687;28;45326;-65
2022/03/10 03:16:43;;;;;;;;;47.33;39.00;;;;;6.75;61.81;99962.59;5046060;28;45371;-65
2022/03/10 03:19:08;;;;;;;;;45.33;38.00;;;;;6.72;61.96;99967.88;5057940;28;45379;-65
2022/03/10 03:21:35;;;;;;;;;50.33;40.00;;;;;6.72;61.90;99970.50;5047166;28;46019;-65
2022/03/10 03:24:00;;;;;;;;;43.00;38.33;;;;;6.70;61.96;99973.16;5058104;28;45659;-64
2022/03/10 03:26:26;;;;;;;;;50.00;38.33;;;;;6.69;61.77;99970.56;5049250;28;45438;-64
2022/03/10 03:28:51;;;;;;;;;52.33;41.67;;;;;6.68;61.94;99979.28;5057861;28;45409;-65
2022/03/10 03:31:16;;;;;;;;;48.00;40.33;;;;;6.64;62.03;99974.09;5050146;28;45573;-65
2022/03/10 03:33:42;;;;;;;;;40.00;36.33;;;;;6.63;61.82;99974.97;5057667;28;45445;-65
2022/03/10 03:36:08;;;;;;;;;44.00;33.67;;;;;6.63;61.48;99976.72;5049831;28;45556;-65
2022/03/10 03:38:34;;;;;;;;;36.33;31.33;;;;;6.62;61.18;99967.13;5050750;28;45511;-65
2022/03/10 03:40:59;;;;;;;;;32.67;32.67;;;;;6.59;60.99;99967.16;5052801;28;45450;-65
2022/03/10 03:43:25;;;;;;;;;43.00;35.00;;;;;6.59;60.94;99972.38;5039407;28;45720;-65
2022/03/10 03:45:50;;;;;;;;;29.67;28.67;;;;;6.59;60.86;99969.75;5055735;28;45377;-65
2022/03/10 03:48:16;;;;;;;;;34.67;32.67;;;;;6.58;60.50;99971.50;5057566;28;45329;-65
2022/03/10 03:50:41;;;;;;;;;41.33;33.00;;;;;6.59;60.60;99975.00;5054860;28;47120;-65
2022/03/10 03:53:07;;;;;;;;;38.33;34.00;;;;;6.56;60.48;99964.56;5039060;28;45492;-65
2022/03/10 03:55:32;;;;;;;;;40.00;33.00;;;;;6.55;60.60;99965.44;5050385;28;45358;-65
2022/03/10 03:57:58;;;;;;;;;33.33;31.00;;;;;6.54;60.42;99964.56;5057049;28;45531;-65
2022/03/10 04:00:23;;;;;;;;;31.00;30.67;;;;;6.53;60.22;99964.59;5034606;28;46497;-64
2022/03/10 04:02:49;;;;;;;;;38.00;34.33;;;;;6.52;60.13;99965.50;5051335;28;45472;-65
2022/03/10 04:05:14;;;;;;;;;27.67;27.33;;;;;6.47;59.92;99968.16;5053879;28;45335;-65
2022/03/10 04:07:40;;;;;;;;;31.33;28.33;;;;;6.45;60.60;99974.28;5050927;28;45433;-65
2022/03/10 04:10:07;;;;;;;;;39.00;31.33;;;;;6.44;60.36;99975.16;5053410;28;46607;-65
2022/03/10 04:12:33;;;;;;;;;15.00;13.33;;;;;6.39;60.26;99976.94;5053697;28;45386;-67
2022/03/10 04:14:59;;;;;;;;;37.00;32.33;;;;;6.35;61.03;99984.00;5055092;28;45389;-65
2022/03/10 04:17:24;;;;;;;;;42.33;37.00;;;;;6.29;61.08;99974.44;5056815;28;45563;-65
2022/03/10 04:19:50;;;;;;;;;42.67;37.00;;;;;6.25;61.25;99975.34;5055159;28;45529;-65
2022/03/10 04:22:15;;;;;;;;;35.00;32.67;;;;;6.25;61.73;99979.69;5050769;28;45346;-65
2022/03/10 04:24:41;;;;;;;;;37.33;32.33;;;;;6.22;61.58;99977.97;5056119;28;45394;-65
2022/03/10 04:27:06;;;;;;;;;32.67;27.33;;;;;6.23;61.32;99976.22;5053176;28;45462;-64
2022/03/10 04:29:32;;;;;;;;;40.00;34.00;;;;;6.23;61.64;99981.47;5056755;28;45427;-65
2022/03/10 04:31:57;;;;;;;;;42.00;38.67;;;;;6.20;62.40;99981.50;5049966;28;45319;-65
2022/03/10 04:34:23;;;;;;;;;47.33;40.00;;;;;6.15;62.66;99984.16;5039043;28;45444;-65
2022/03/10 04:36:48;;;;;;;;;57.33;41.33;;;;;6.13;62.91;99983.31;5051503;28;45401;-64
2022/03/10 04:39:13;;;;;;;;;52.67;41.67;;;;;6.10;63.10;99985.06;5056345;28;45670;-64
2022/03/10 04:41:39;;;;;;;;;51.67;41.33;;;;;6.05;62.84;99982.47;5052594;28;45344;-65
2022/03/10 04:44:05;;;;;;;;;48.33;41.67;;;;;6.04;63.19;99985.09;5056509;28;46165;-64
2022/03/10 04:46:30;;;;;;;;;48.33;42.00;;;;;6.01;63.31;99982.53;5055694;28;45307;-64
2022/03/10 04:48:56;;;;;;;;;53.67;42.33;;;;;5.98;63.51;99978.19;5056822;28;45675;-64
2022/03/10 04:51:21;;;;;;;;;53.67;42.00;;;;;5.96;63.80;99979.94;5049322;28;45524;-64
2022/03/10 04:53:47;;;;;;;;;56.33;44.67;;;;;5.94;63.56;99972.09;5056451;28;45421;-66
2022/03/10 04:56:13;;;;;;;;;44.00;40.00;;;;;5.94;63.63;99971.25;5050376;28;45731;-64
2022/03/10 04:58:38;;;;;;;;;51.33;41.33;;;;;5.93;63.66;99973.00;5055934;28;45477;-64
2022/03/10 05:01:04;;;;;;;;;53.67;43.00;;;;;5.92;63.60;99971.25;5043360;28;45416;-64
2022/03/10 05:03:32;;;;;;;;;52.33;42.33;;;;;5.93;63.77;99975.59;5054432;28;45500;-64
2022/03/10 05:05:58;;;;;;;;;47.00;42.00;;;;;5.94;63.93;99971.25;5047843;28;45513;-64
2022/03/10 05:08:23;;;;;;;;;50.00;39.67;;;;;5.94;63.67;99973.84;5056256;28;45287;-64
2022/03/10 05:10:49;;;;;;;;;35.33;32.33;;;;;5.93;63.65;99973.00;5047602;28;45319;-64
2022/03/10 05:13:14;;;;;;;;;45.00;38.33;;;;;5.92;63.94;99973.00;5055572;28;45414;-64
2022/03/10 05:15:40;;;;;;;;;45.00;38.33;;;;;5.90;64.02;99967.78;5047048;28;45409;-64
2022/03/10 05:18:05;;;;;;;;;53.00;42.67;;;;;5.87;64.28;99975.59;5055179;28;46198;-64
2022/03/10 05:20:31;;;;;;;;;59.33;44.33;;;;;5.87;64.30;99973.00;5050831;28;45590;-65
2022/03/10 05:22:59;;;;;;;;;52.67;43.67;;;;;5.85;64.27;99969.53;5054314;28;45424;-64
2022/03/10 05:25:30;;;;;;;;;56.67;42.33;;;;;5.83;64.32;99971.31;5051583;28;45453;-65
2022/03/10 05:27:56;;;;;;;;;44.67;39.67;;;;;5.80;63.96;99976.53;5042458;28;46162;-64
2022/03/10 05:30:21;;;;;;;;;55.00;46.00;;;;;5.79;64.49;99976.56;5050818;28;45255;-65
2022/03/10 05:32:47;;;;;;;;;60.33;44.00;;;;;5.76;64.56;99976.56;5055707;28;45564;-65
2022/03/10 05:35:14;;;;;;;;;58.33;45.67;;;;;5.74;64.58;99965.25;5050809;28;45354;-65
2022/03/10 05:37:40;;;;;;;;;63.75;49.00;;;;;5.72;64.89;99972.22;5037464;28;46813;-65
2022/03/10 05:40:08;;;;;;;;;61.00;48.33;;;;;5.72;64.97;99972.22;5051535;28;45471;-65
2022/03/10 05:42:33;;;;;;;;;58.00;45.67;;;;;5.67;64.87;99967.06;5055925;28;45307;-65
2022/03/10 05:44:59;;;;;;;;;51.00;41.67;;;;;5.63;64.94;99967.06;5051866;28;45555;-65
2022/03/10 05:47:24;;;;;;;;;48.33;42.00;;;;;5.56;64.85;99964.50;5055557;28;45936;-65
2022/03/10 05:49:49;;;;;;;;;60.00;42.67;;;;;5.51;65.67;99971.53;5034890;28;45375;-65
2022/03/10 05:52:15;;;;;;;;;56.33;42.33;;;;;5.49;64.92;99980.25;5055456;28;45712;-65
2022/03/10 05:54:41;;;;;;;;;44.67;38.67;;;;;5.46;65.51;99975.91;5054508;28;45284;-65
2022/03/10 05:57:07;;;;;;;;;51.00;43.00;;;;;5.44;65.61;99982.88;5055487;28;45432;-65
2022/03/10 05:59:33;;;;;;;;;51.67;41.00;;;;;5.44;65.25;99984.63;5055267;28;45400;-65
2022/03/10 06:01:58;;;;;;;;;55.00;43.33;;;;;5.42;65.39;99989.00;5033382;28;45325;-65
2022/03/10 06:04:23;;;;;;;;;54.33;45.33;;;;;5.41;65.50;99988.13;5055868;28;45414;-65
2022/03/10 06:06:50;;;;;;;;;54.33;40.33;;;;;5.39;65.77;99987.25;5041471;28;48137;-65
2022/03/10 06:09:16;;;;;;;;;53.33;40.00;;;;;5.41;65.72;99995.09;5036927;28;45682;-65
2022/03/10 06:11:43;;;;;;;;;51.67;41.33;;;;;5.43;65.92;99998.56;5048104;28;45384;-65
2022/03/10 06:14:10;;;;;;;;;52.67;42.00;;;;;5.44;65.95;100002.94;5054953;28;45362;-65
2022/03/10 06:16:35;;;;;;;;;51.00;42.00;;;;;5.46;65.75;99999.44;5052553;28;45346;-66
2022/03/10 06:19:01;;;;;;;;;53.33;44.67;;;;;5.47;65.70;100003.78;5054929;28;45263;-66
2022/03/10 06:21:28;;;;;;;;;54.67;42.33;;;;;5.48;65.98;100004.66;5048254;28;45482;-64
2022/03/10 06:23:53;;;;;;;;;47.33;41.33;;;;;5.51;65.71;99994.19;5050743;28;45657;-65
2022/03/10 06:26:19;;;;;;;;;57.67;45.00;;;;;5.52;65.82;99999.41;5050077;28;46070;-64
2022/03/10 06:28:44;;;;;;;;;53.00;40.00;;;;;5.52;66.18;99986.34;5054425;28;45342;-65
2022/03/10 06:31:10;;;;;;;;;57.00;43.67;;;;;5.55;66.20;99998.50;5048746;28;45552;-74
2022/03/10 06:33:36;;;;;;;;;54.67;44.67;;;;;5.54;65.79;99997.63;5052132;28;45482;-73
2022/03/10 06:36:03;;;;;;;;;57.00;45.00;;;;;5.55;66.17;99996.75;5046655;28;47906;-72
2022/03/10 06:38:28;;;;;;;;;58.00;46.00;;;;;5.56;66.16;100002.84;5048266;28;45434;-65
2022/03/10 06:40:54;;;;;;;;;42.67;35.00;;;;;5.57;65.79;99997.63;5050102;28;45371;-65
2022/03/10 06:43:19;;;;;;;;;59.00;46.33;;;;;5.59;65.85;99998.47;5032409;28;45603;-65
2022/03/10 06:45:44;;;;;;;;;52.33;42.67;;;;;5.60;65.90;99997.59;5054023;28;46293;-65
2022/03/10 06:48:10;;;;;;;;;54.33;43.33;;;;;5.64;65.99;100000.22;5054076;28;45356;-65
2022/03/10 06:50:37;;;;;;;;;56.00;42.00;;;;;5.67;65.77;99994.97;5052773;28;45341;-65
2022/03/10 06:53:02;;;;;;;;;56.00;42.33;;;;;5.69;65.43;99998.44;5053761;28;45612;-65
2022/03/10 06:55:28;;;;;;;;;60.00;48.00;;;;;5.69;65.70;100001.94;5047325;28;46210;-65
2022/03/10 06:57:54;;;;;;;;;53.00;44.00;;;;;5.72;65.87;100006.25;5051633;28;45428;-65
2022/03/10 07:00:20;;;;;;;;;59.67;45.33;;;;;5.73;65.98;100003.63;5047217;28;45364;-65
2022/03/10 07:02:46;;;;;;;;;57.67;43.67;;;;;5.76;65.81;100007.97;5047827;28;45409;-65
2022/03/10 07:05:11;;;;;;;;;63.67;49.33;;;;;5.77;65.68;100005.34;5049144;28;46038;-65
2022/03/10 07:07:37;;;;;;;;;57.00;47.67;;;;;5.83;65.83;100004.44;5054093;28;45328;-65
2022/03/10 07:10:04;;;;;;;;;54.00;44.33;;;;;5.87;65.47;100012.25;5051581;28;45504;-65
2022/03/10 07:12:29;;;;;;;;;53.67;43.67;;;;;5.93;64.54;100012.25;5052837;28;45497;-65
2022/03/10 07:14:55;;;;;;;;;49.33;40.00;;;;;5.95;64.24;100010.47;5050364;28;45381;-65
2022/03/10 07:17:20;;;;;;;;;51.67;42.67;;;;;5.99;64.12;100010.47;5047154;28;45358;-65
2022/03/10 07:19:46;;;;;;;;;57.00;44.33;;;;;6.03;64.31;100002.59;5052490;28;45855;-65
2022/03/10 07:22:16;;;;;;;;;54.67;41.00;;;;;6.09;63.85;100006.88;5049416;28;45454;-66
2022/03/10 07:24:41;;;;;;;;;52.67;43.00;;;;;6.12;64.00;100005.13;5052250;28;46250;-66
2022/03/10 07:27:07;;;;;;;;;51.67;41.67;;;;;6.16;63.96;100006.84;5049839;28;45373;-65
2022/03/10 07:29:33;;;;;;;;;55.67;44.00;;;;;6.23;64.01;100018.97;5053682;28;45430;-65
2022/03/10 07:31:58;;;;;;;;;60.00;45.00;;;;;6.29;63.89;100012.84;5050229;28;45632;-65
2022/03/10 07:34:24;;;;;;;;;48.33;40.33;;;;;6.36;63.69;100014.53;5053711;28;46525;-65
2022/03/10 07:36:49;;;;;;;;;49.67;41.33;;;;;6.42;63.19;100006.59;5050826;28;45230;-65
2022/03/10 07:39:14;;;;;;;;;58.33;43.33;;;;;6.49;62.75;100004.81;5053513;28;45366;-65
2022/03/10 07:41:40;;;;;;;;;49.33;41.33;;;;;6.54;62.85;99997.75;5048619;28;45362;-65
2022/03/10 07:44:05;;;;;;;;;55.33;42.33;;;;;6.61;63.19;100004.69;5039306;28;45461;-65
2022/03/10 07:46:31;;;;;;;;;57.33;45.00;;;;;6.65;63.28;99999.41;5033415;28;45350;-64
2022/03/10 07:48:56;;;;;;;;;51.67;40.33;;;;;6.72;63.17;100000.19;5053112;28;45333;-64
2022/03/10 07:51:22;;;;;;;;;58.00;46.67;;;;;6.79;63.16;100003.63;5044682;28;45542;-65
2022/03/10 07:53:47;;;;;;;;;52.33;42.33;;;;;6.86;63.04;100002.69;5051279;28;46240;-66
2022/03/10 07:56:13;;;;;;;;;54.00;43.00;;;;;6.93;62.59;100001.72;5046926;28;45278;-64
2022/03/10 07:58:38;;;;;;;;;59.00;43.33;;;;;7.02;62.66;100003.38;5052174;28;45431;-64
2022/03/10 08:01:04;;;;;;;;;57.33;46.33;;;;;7.06;62.53;99997.19;5047280;28;45444;-65
2022/03/10 08:03:29;;;;;;;;;57.00;46.00;;;;;7.12;62.27;99999.75;5056295;28;45637;-64
2022/03/10 08:05:55;;;;;;;;;65.00;50.00;;;;;7.16;62.09;100004.06;5049706;28;45321;-64
2022/03/10 08:08:20;;;;;;;;;52.33;42.33;;;;;7.20;62.12;100001.41;5056275;28;45465;-65
2022/03/10 08:10:46;;;;;;;;;59.33;46.67;;;;;7.24;62.06;99995.22;5034056;28;45517;-64
2022/03/10 08:13:12;;;;;;;;;56.33;45.67;;;;;7.27;61.74;99997.81;5054782;28;46196;-65
2022/03/10 08:15:37;;;;;;;;;63.67;50.00;;;;;7.31;61.80;99990.78;5049789;28;45398;-64
2022/03/10 08:18:03;;;;;;;;;59.00;46.33;;;;;7.36;61.56;99986.34;5056011;28;45434;-65
2022/03/10 08:20:29;;;;;;;;;61.67;43.67;;;;;7.42;61.35;99982.75;5052382;28;45510;-64
2022/03/10 08:22:54;;;;;;;;;58.67;47.00;;;;;7.48;61.68;99980.91;5055126;28;46514;-64
2022/03/10 08:25:19;;;;;;;;;56.33;47.00;;;;;7.53;61.09;99981.75;5051711;28;45468;-64
2022/03/10 08:27:47;;;;;;;;;61.00;46.67;;;;;7.63;61.14;99974.59;5050355;28;45365;-65
2022/03/10 08:30:14;;;;;;;;;57.67;44.00;;;;;7.70;60.83;99973.63;5053590;28;45265;-64
2022/03/10 08:32:42;;;;;;;;;55.00;43.33;;;;;7.73;60.65;99965.69;5051542;28;46223;-64
2022/03/10 08:35:08;;;;;;;;;61.33;47.33;;;;;7.79;60.49;99970.84;5054113;28;45472;-65
2022/03/10 08:37:33;;;;;;;;;61.33;47.33;;;;;7.81;60.33;99968.19;5046036;28;45419;-64
2022/03/10 08:39:59;;;;;;;;;52.00;43.67;;;;;7.86;60.14;99963.75;5053793;28;45578;-65
2022/03/10 08:42:24;;;;;;;;;52.33;44.33;;;;;7.91;60.00;99965.41;5047579;28;45449;-65
2022/03/10 08:44:50;;;;;;;;;57.67;45.00;;;;;7.97;60.01;99964.44;5054123;28;45446;-64
2022/03/10 08:47:15;;;;;;;;;55.33;46.00;;;;;8.04;59.61;99966.09;5054469;28;45293;-65
2022/03/10 08:49:40;;;;;;;;;59.67;46.67;;;;;8.13;59.32;99967.69;5037166;28;45474;-64
2022/03/10 08:52:06;;;;;;;;;54.67;43.00;;;;;8.20;59.17;99964.94;5050151;28;46160;-64
2022/03/10 08:54:32;;;;;;;;;54.00;43.33;;;;;8.27;58.80;99958.66;5056109;28;45460;-65
2022/03/10 08:56:57;;;;;;;;;60.33;47.33;;;;;8.32;58.57;99962.13;5032626;28;45417;-63
2022/03/10 08:59:22;;;;;;;;;56.00;44.33;;;;;8.38;57.81;99950.63;5037558;28;45512;-64
2022/03/10 09:01:48;;;;;;;;;52.33;42.00;;;;;8.43;57.55;99945.28;5048858;28;45925;-63
2022/03/10 09:04:13;;;;;;;;;52.00;43.00;;;;;8.49;56.79;99947.81;5055620;28;45282;-63
2022/03/10 09:06:39;;;;;;;;;53.67;43.33;;;;;8.55;56.60;99942.44;5048649;28;45425;-63
2022/03/10 09:09:04;;;;;;;;;53.00;42.33;;;;;8.62;56.92;99938.81;5036914;28;45468;-63
2022/03/10 09:11:30;;;;;;;;;54.33;43.00;;;;;8.69;56.48;99932.53;5048607;28;46187;-63
2022/03/10 09:13:56;;;;;;;;;53.67;42.67;;;;;8.77;56.39;99930.63;5054329;28;45435;-63
2022/03/10 09:16:22;;;;;;;;;52.67;41.00;;;;;8.86;56.10;99926.94;5050785;28;45330;-63
2022/03/10 09:18:51;;;;;;;;;42.67;36.67;;;;;8.93;55.91;99926.78;5055179;28;45311;-63
2022/03/10 09:21:17;;;;;;;;;52.67;40.67;;;;;8.97;55.64;99923.19;5048741;28;46037;-63
2022/03/10 09:23:43;;;;;;;;;54.67;41.67;;;;;9.03;55.70;99922.22;5055663;28;45484;-63
2022/03/10 09:26:09;;;;;;;;;41.67;36.67;;;;;9.08;55.12;99918.56;5051971;28;45575;-64
2022/03/10 09:28:34;;;;;;;;;50.00;41.00;;;;;9.18;54.72;99921.88;5055426;28;45393;-63
2022/03/10 09:31:00;;;;;;;;;48.33;39.00;;;;;9.27;54.73;99921.66;5050734;28;45498;-63
2022/03/10 09:33:25;;;;;;;;;53.00;40.33;;;;;9.36;54.19;99916.22;5053196;28;45455;-63
2022/03/10 09:35:51;;;;;;;;;52.67;41.33;;;;;9.47;54.72;99915.09;5052168;28;45429;-63
2022/03/10 09:38:18;;;;;;;;;48.67;38.67;;;;;9.54;54.12;99908.81;5054743;28;45451;-64
2022/03/10 09:40:43;;;;;;;;;48.00;38.67;;;;;9.60;53.55;99906.00;5052015;28;45554;-64
2022/03/10 09:43:10;;;;;;;;;51.67;39.00;;;;;9.69;53.49;99900.53;5054683;28;45381;-64
2022/03/10 09:45:36;;;;;;;;;42.33;35.67;;;;;9.76;52.86;99897.69;5052881;28;45410;-63
2022/03/10 09:48:02;;;;;;;;;41.00;36.33;;;;;9.85;52.73;99895.75;5036759;28;45520;-63
2022/03/10 09:50:27;;;;;;;;;45.67;36.33;;;;;9.92;52.93;99889.41;5050727;28;45929;-63
2022/03/10 09:52:53;;;;;;;;;42.67;36.00;;;;;9.98;52.54;99886.66;5053268;28;45420;-64
2022/03/10 09:55:19;;;;;;;;;35.33;32.00;;;;;10.04;51.81;99886.50;5051816;28;45538;-63
2022/03/10 09:57:46;;;;;;;;;39.33;33.67;;;;;10.09;52.10;99874.06;5050079;28;45401;-64
2022/03/10 10:00:14;;;;;;;;;38.67;34.33;;;;;10.15;51.61;99871.28;5033918;28;46585;-63
2022/03/10 10:02:40;;;;;;;;;36.67;32.00;;;;;10.23;51.96;99871.09;5052607;28;45311;-63
2022/03/10 10:05:46;;;;;;;;;36.33;32.33;;;;;10.34;51.27;99867.28;5053062;28;45359;-63
2022/03/10 10:08:17;;;;;;;;;34.67;33.00;;;;;10.42;50.93;99864.41;5034691;28;45656;-63
2022/03/10 10:10:47;;;;;;;;;45.00;38.00;;;;;10.49;51.03;99863.34;5048557;28;46250;-64
2022/03/10 10:13:30;;;;;;;;;44.67;34.33;;;;;10.56;50.80;99850.88;5033336;28;45513;-63
2022/03/10 10:15:58;;;;;;;;;37.00;32.33;;;;;10.60;50.89;99850.72;5045065;28;45488;-63
2022/03/10 10:18:24;;;;;;;;;37.00;32.67;;;;;10.68;50.67;99850.50;5050819;28;45448;-63
2022/03/10 10:20:51;;;;;;;;;46.33;38.00;;;;;10.79;50.77;99841.38;5048711;28;45830;-64
2022/03/10 10:23:22;;;;;;;;;44.33;38.00;;;;;10.86;50.55;99841.19;5051464;28;45405;-63
2022/03/10 10:25:56;;;;;;;;;37.33;32.67;;;;;10.96;49.90;99835.59;5050001;28;45531;-64
2022/03/10 10:28:32;;;;;;;;;40.33;34.00;;;;;11.07;49.76;99829.97;5052792;28;45344;-64
2022/03/10 10:31:04;;;;;;;;;36.67;32.00;;;;;11.18;49.31;99826.13;5049724;28;45469;-64
2022/03/10 10:33:32;;;;;;;;;38.67;34.00;;;;;11.26;49.19;99827.63;5054233;28;45355;-63
2022/03/10 10:36:26;;;;;;;;;35.67;32.00;;;;;11.33;48.27;99819.47;5049047;28;45507;-64
2022/03/10 10:39:05;;;;;;;;;33.33;29.67;;;;;11.42;48.04;99819.16;5050412;28;45350;-64
2022/03/10 10:41:31;;;;;;;;;34.33;27.33;;;;;11.49;47.78;99815.44;5044175;28;46406;-65
2022/03/10 10:44:01;;;;;;;;;32.00;28.67;;;;;11.62;47.72;99809.75;5052592;28;45235;-65
2022/03/10 10:46:26;;;;;;;;;33.00;31.33;;;;;11.71;47.06;99807.66;5027663;28;45778;-64
2022/03/10 10:48:53;;;;;;;;;37.33;31.33;;;;;11.80;46.93;99796.81;5035150;28;45610;-65
2022/03/10 10:51:36;;;;;;;;;41.33;34.67;;;;;11.86;47.12;99801.91;5047851;28;45413;-64
2022/03/10 10:54:24;;;;;;;;;37.00;31.33;;;;;11.88;46.22;99793.91;5043390;28;45457;-62
2022/03/10 10:56:58;;;;;;;;;33.00;31.67;;;;;11.85;46.30;99789.59;5013369;28;45619;-64
2022/03/10 10:59:41;;;;;;;;;37.33;32.33;;;;;11.90;46.06;99781.50;5053940;28;45443;-63
2022/03/10 11:02:16;;;;;;;;;36.00;32.00;;;;;11.97;46.23;99776.88;5047937;28;45342;-63
2022/03/10 11:04:46;;;;;;;;;34.00;31.67;;;;;12.03;46.49;99771.38;5053362;28;45310;-63
2022/03/10 11:07:13;;;;;;;;;37.00;31.33;;;;;12.13;45.91;99778.03;5047610;28;45492;-63
2022/03/10 11:09:40;;;;;;;;;36.00;32.33;;;;;12.16;46.10;99773.53;5053482;28;45464;-63
2022/03/10 11:12:09;;;;;;;;;38.67;32.67;;;;;12.26;45.73;99773.16;5047177;28;45706;-63
2022/03/10 11:14:35;;;;;;;;;31.67;30.00;;;;;12.33;45.62;99766.75;5053586;28;45409;-63
2022/03/10 11:17:01;;;;;;;;;35.00;31.00;;;;;12.35;44.88;99763.13;5047345;28;45495;-63
2022/03/10 11:19:32;;;;;;;;;29.33;29.00;;;;;12.41;45.49;99762.03;5054121;28;45422;-63
2022/03/10 11:22:39;;;;;;;;;32.67;29.67;;;;;12.47;45.89;99752.09;5044996;28;46272;-63
2022/03/10 11:25:47;;;;;;;;;33.67;29.67;;;;;12.60;44.79;99757.78;4981276;28;45561;-63
2022/03/10 11:28:25;;;;;;;;;28.67;27.33;;;;;12.67;44.54;99751.34;4953421;28;45230;-64